Time;durP1;ratioP1;P1;durP2;ratioP2;P2;SDS_P1;SDS_P2;PMS_P1;PMS_P2;Temp;Humidity;BMP_temperature;BMP_pressure;BME280_temperature;BME280_humidity;BME280_pressure;Samples;Min_cycle;Max_cycle;Signal;HPM_P1;HPM_P2
2021/10/10 00:00:53;;;;;;;8.88;7.30;;;13.70;71.50;;;;;;4885203;29;20183;-82
2021/10/10 00:03:21;;;;;;;9.13;7.65;;;13.60;71.30;;;;;;4885317;29;20040;-84
2021/10/10 00:05:47;;;;;;;10.05;7.40;;;13.60;71.30;;;;;;4885303;29;20045;-83
2021/10/10 00:08:13;;;;;;;9.05;7.38;;;13.60;71.30;;;;;;4901843;29;20034;-83
2021/10/10 00:10:39;;;;;;;9.60;7.65;;;13.60;71.30;;;;;;4886126;29;20032;-82
2021/10/10 00:13:05;;;;;;;9.75;7.30;;;13.50;71.30;;;;;;4885705;29;20110;-83
2021/10/10 00:15:31;;;;;;;10.30;7.55;;;13.50;71.30;;;;;;4885121;29;20363;-83
2021/10/10 00:17:56;;;;;;;10.18;7.65;;;13.50;71.30;;;;;;4870019;29;20474;-83
2021/10/10 00:20:22;;;;;;;9.18;7.30;;;13.50;71.30;;;;;;4885199;29;20500;-82
2021/10/10 00:22:48;;;;;;;9.95;7.43;;;13.50;71.30;;;;;;4884907;29;20033;-82
2021/10/10 00:25:14;;;;;;;8.88;7.25;;;13.50;71.30;;;;;;4870144;29;20044;-83
2021/10/10 00:27:40;;;;;;;10.57;7.57;;;13.40;71.30;;;;;;4901361;29;20043;-83
2021/10/10 00:30:08;;;;;;;10.00;7.82;;;13.40;71.30;;;;;;4869472;29;20135;-83
2021/10/10 00:32:34;;;;;;;9.27;7.13;;;13.40;71.30;;;;;;4902032;29;20036;-83
2021/10/10 00:35:00;;;;;;;10.88;7.75;;;13.40;71.30;;;;;;4869093;29;20100;-83
2021/10/10 00:37:26;;;;;;;10.10;7.70;;;13.40;71.40;;;;;;4884614;29;20120;-82
2021/10/10 00:39:52;;;;;;;10.27;8.35;;;13.30;71.40;;;;;;4869568;29;20028;-83
2021/10/10 00:42:18;;;;;;;10.07;7.93;;;13.30;71.30;;;;;;4870044;29;20040;-82
2021/10/10 00:44:46;;;;;;;9.30;7.68;;;13.30;71.30;;;;;;4869392;29;20155;-83
2021/10/10 00:47:12;;;;;;;9.63;7.20;;;13.30;71.40;;;;;;4884140;29;20100;-83
2021/10/10 00:49:39;;;;;;;9.48;7.45;;;13.30;71.40;;;;;;4869314;29;20494;-83
2021/10/10 00:52:06;;;;;;;10.00;7.82;;;13.30;71.40;;;;;;4869424;29;20029;-83
2021/10/10 00:54:32;;;;;;;10.18;7.57;;;13.20;71.30;;;;;;4884686;29;20537;-83
2021/10/10 00:57:03;;;;;;;10.10;8.43;;;13.20;71.30;;;;;;4869001;29;20124;-84
2021/10/10 00:59:32;;;;;;;9.52;7.72;;;13.20;71.40;;;;;;4901213;29;20025;-87
2021/10/10 01:01:57;;;;;;;10.15;7.90;;;13.20;71.40;;;;;;4868735;29;20143;-83
2021/10/10 01:04:23;;;;;;;9.82;7.78;;;13.20;71.40;;;;;;4869152;29;20143;-83
2021/10/10 01:06:50;;;;;;;9.43;7.43;;;13.10;71.40;;;;;;4899636;29;20067;-83
2021/10/10 01:09:15;;;;;;;10.32;8.23;;;13.10;71.40;;;;;;4884394;29;20035;-83
2021/10/10 01:11:42;;;;;;;10.15;8.15;;;13.10;71.40;;;;;;4900719;29;20056;-83
2021/10/10 01:14:10;;;;;;;10.18;8.00;;;13.10;71.40;;;;;;4900934;29;20045;-82
2021/10/10 01:16:35;;;;;;;9.73;7.80;;;13.10;71.40;;;;;;4884117;29;20103;-83
2021/10/10 01:19:01;;;;;;;10.90;8.30;;;13.10;71.40;;;;;;4884328;29;20069;-84
2021/10/10 01:21:27;;;;;;;10.13;7.72;;;13.00;71.40;;;;;;4884386;29;20048;-83
2021/10/10 01:23:53;;;;;;;10.02;7.93;;;13.00;71.40;;;;;;4899786;29;20033;-82
2021/10/10 01:26:19;;;;;;;9.80;7.78;;;13.00;71.40;;;;;;4883981;29;20072;-83
2021/10/10 01:28:46;;;;;;;10.63;8.38;;;13.00;71.40;;;;;;4884122;29;20040;-83
2021/10/10 01:31:12;;;;;;;10.10;7.57;;;13.00;71.50;;;;;;4868192;29;20064;-83
2021/10/10 01:33:44;;;;;;;10.55;7.40;;;12.90;71.40;;;;;;4883721;29;20043;-83
2021/10/10 01:36:11;;;;;;;11.98;8.50;;;12.90;71.40;;;;;;4868204;29;20526;-84
2021/10/10 01:38:37;;;;;;;11.30;8.70;;;12.90;71.40;;;;;;4884091;29;20466;-83
2021/10/10 01:41:03;;;;;;;9.35;7.85;;;12.90;71.40;;;;;;4868656;29;20035;-82
2021/10/10 01:43:29;;;;;;;11.20;8.77;;;12.90;71.50;;;;;;4868147;29;20037;-83
2021/10/10 01:45:54;;;;;;;10.30;8.13;;;12.90;71.50;;;;;;4899361;29;20154;-82
2021/10/10 01:48:20;;;;;;;10.82;8.07;;;12.80;71.40;;;;;;4899122;29;20128;-83
2021/10/10 01:50:46;;;;;;;10.43;8.52;;;12.80;71.50;;;;;;4883443;29;20037;-83
2021/10/10 01:53:12;;;;;;;9.68;7.80;;;12.80;71.40;;;;;;4868130;29;20037;-83
2021/10/10 01:55:38;;;;;;;10.93;8.35;;;12.80;71.40;;;;;;4868206;29;20052;-84
2021/10/10 01:58:04;;;;;;;11.65;8.73;;;12.80;71.40;;;;;;4899747;29;20036;-83
2021/10/10 02:00:29;;;;;;;10.90;8.57;;;12.70;71.40;;;;;;4883585;29;20537;-84
2021/10/10 02:02:55;;;;;;;11.05;7.85;;;12.70;71.40;;;;;;4883545;29;20044;-83
2021/10/10 02:05:21;;;;;;;10.88;8.32;;;12.80;71.50;;;;;;4883403;29;20482;-82
2021/10/10 02:07:48;;;;;;;9.90;7.97;;;12.70;71.40;;;;;;4867887;29;20061;-82
2021/10/10 02:10:14;;;;;;;10.23;8.20;;;12.70;71.40;;;;;;4900008;29;20032;-83
2021/10/10 02:12:40;;;;;;;10.00;7.78;;;12.70;71.40;;;;;;4899296;29;20375;-83
2021/10/10 02:15:07;;;;;;;10.00;7.85;;;12.70;71.40;;;;;;4898698;29;20092;-83
2021/10/10 02:17:33;;;;;;;11.43;8.50;;;12.70;71.40;;;;;;4900546;29;20040;-82
2021/10/10 02:19:59;;;;;;;11.25;8.05;;;12.70;71.40;;;;;;4883067;29;20064;-84
2021/10/10 02:22:25;;;;;;;9.85;7.95;;;12.60;71.40;;;;;;4882888;29;20461;-83
2021/10/10 02:24:51;;;;;;;10.70;8.18;;;12.60;71.40;;;;;;4898703;29;20039;-83
2021/10/10 02:27:17;;;;;;;11.13;8.45;;;12.60;71.40;;;;;;4883321;29;20128;-83
2021/10/10 02:29:42;;;;;;;10.70;8.07;;;12.60;71.40;;;;;;4898546;29;20029;-82
2021/10/10 02:32:08;;;;;;;10.50;7.70;;;12.50;71.30;;;;;;4882784;29;20032;-82
2021/10/10 02:34:34;;;;;;;9.98;7.85;;;12.60;71.40;;;;;;4882865;29;20095;-83
2021/10/10 02:37:00;;;;;;;9.18;7.25;;;12.50;71.40;;;;;;4867449;29;20093;-84
2021/10/10 02:39:25;;;;;;;10.65;8.20;;;12.50;71.40;;;;;;4867470;29;20056;-84
2021/10/10 02:41:51;;;;;;;11.07;8.38;;;12.50;71.40;;;;;;4867551;29;20509;-84
2021/10/10 02:44:20;;;;;;;11.45;8.23;;;12.50;71.40;;;;;;4867658;29;20048;-83
2021/10/10 02:46:45;;;;;;;11.32;8.45;;;12.50;71.40;;;;;;4883303;29;20119;-83
2021/10/10 02:49:11;;;;;;;9.00;7.65;;;12.50;71.40;;;;;;4868469;29;20057;-82
2021/10/10 02:51:37;;;;;;;9.32;7.47;;;12.40;71.40;;;;;;4867461;29;20037;-82
2021/10/10 02:54:02;;;;;;;10.52;8.43;;;12.40;71.40;;;;;;4883293;29;20048;-82
2021/10/10 02:56:29;;;;;;;11.98;8.75;;;12.40;71.40;;;;;;4883546;29;20047;-84
2021/10/10 02:58:55;;;;;;;9.15;7.35;;;12.40;71.40;;;;;;4867317;29;20029;-83
2021/10/10 03:01:21;;;;;;;10.20;7.20;;;12.30;71.30;;;;;;4882828;29;20041;-83
2021/10/10 03:03:47;;;;;;;10.50;8.05;;;12.40;71.40;;;;;;4899331;29;20044;-84
2021/10/10 03:06:13;;;;;;;10.60;7.95;;;12.30;71.40;;;;;;4867063;29;20048;-84
2021/10/10 03:08:39;;;;;;;10.43;8.15;;;12.30;71.40;;;;;;4867303;29;20036;-84
2021/10/10 03:11:05;;;;;;;9.82;7.85;;;12.30;71.40;;;;;;4868064;29;20139;-83
2021/10/10 03:13:32;;;;;;;9.70;7.70;;;12.30;71.40;;;;;;4903313;29;20093;-83
2021/10/10 03:15:58;;;;;;;9.85;7.80;;;12.30;71.40;;;;;;4886670;29;20036;-83
2021/10/10 03:18:25;;;;;;;9.02;7.45;;;12.30;71.40;;;;;;4870900;29;20506;-83
2021/10/10 03:20:52;;;;;;;9.65;8.00;;;12.20;71.40;;;;;;4886246;29;20099;-82
2021/10/10 03:23:17;;;;;;;9.82;7.80;;;12.20;71.40;;;;;;4886255;29;20036;-82
2021/10/10 03:25:43;;;;;;;9.85;7.82;;;12.20;71.40;;;;;;4870825;29;20039;-83
2021/10/10 03:28:09;;;;;;;9.48;7.70;;;12.20;71.40;;;;;;4886378;29;20374;-83
2021/10/10 03:30:34;;;;;;;9.93;7.55;;;12.20;71.40;;;;;;4886069;29;20478;-82
2021/10/10 03:33:00;;;;;;;10.55;8.38;;;12.20;71.40;;;;;;4870750;29;20483;-83
2021/10/10 03:35:26;;;;;;;11.07;8.70;;;12.10;71.30;;;;;;4870818;29;20033;-83
2021/10/10 03:37:52;;;;;;;9.80;7.40;;;12.10;71.40;;;;;;4871312;29;20037;-83
2021/10/10 03:40:17;;;;;;;10.75;7.68;;;12.10;71.40;;;;;;4871101;29;20370;-83
2021/10/10 03:42:43;;;;;;;10.18;8.23;;;12.10;71.40;;;;;;4870682;29;20394;-83
2021/10/10 03:45:09;;;;;;;10.43;8.20;;;12.10;71.40;;;;;;4886358;29;20378;-83
2021/10/10 03:47:35;;;;;;;9.77;7.63;;;12.10;71.40;;;;;;4886112;29;20029;-84
2021/10/10 03:50:01;;;;;;;9.15;7.53;;;12.10;71.40;;;;;;4902003;29;20429;-82
2021/10/10 03:52:27;;;;;;;9.70;7.97;;;12.10;71.40;;;;;;4901829;29;20043;-83
2021/10/10 03:57:37;;;;;;;9.27;7.70;;;12.00;71.40;;;;;;4902252;29;20040;-83
2021/10/10 04:00:07;;;;;;;11.15;8.15;;;12.00;71.30;;;;;;4886228;29;20508;-83
2021/10/10 04:02:42;;;;;;;9.88;8.30;;;12.00;71.40;;;;;;4886922;29;20044;-84
2021/10/10 04:07:53;;;;;;;10.07;8.13;;;11.90;71.40;;;;;;4873614;29;20215;-83
2021/10/10 04:10:19;;;;;;;9.02;7.40;;;11.90;71.40;;;;;;4886088;29;20478;-82
2021/10/10 04:12:45;;;;;;;9.73;8.02;;;11.90;71.40;;;;;;4869510;29;20139;-84
2021/10/10 04:15:12;;;;;;;10.88;8.70;;;11.90;71.40;;;;;;4885713;29;20496;-83
2021/10/10 04:17:39;;;;;;;9.57;7.82;;;11.90;71.40;;;;;;4902093;29;20037;-83
2021/10/10 04:20:06;;;;;;;10.45;7.97;;;11.90;71.40;;;;;;4870080;29;20450;-83
2021/10/10 04:22:31;;;;;;;10.32;8.00;;;11.80;71.40;;;;;;4885276;29;20036;-83
2021/10/10 04:24:57;;;;;;;9.52;7.68;;;11.80;71.40;;;;;;4870029;29;20056;-84
2021/10/10 04:27:23;;;;;;;10.05;8.10;;;11.80;71.40;;;;;;4869593;29;20067;-83
2021/10/10 04:29:49;;;;;;;10.50;8.50;;;11.80;71.40;;;;;;4901730;29;20044;-83
2021/10/10 04:32:15;;;;;;;9.93;8.45;;;11.80;71.40;;;;;;4885065;29;20032;-84
2021/10/10 04:34:40;;;;;;;10.80;8.57;;;11.80;71.40;;;;;;4869595;29;20084;-83
2021/10/10 04:37:06;;;;;;;9.52;7.47;;;11.80;71.40;;;;;;4869558;29;20456;-83
2021/10/10 04:39:32;;;;;;;10.50;8.23;;;11.70;71.40;;;;;;4900663;29;20042;-83
2021/10/10 04:41:58;;;;;;;9.07;7.05;;;11.70;71.40;;;;;;4869693;29;20119;-84
2021/10/10 04:44:25;;;;;;;9.93;7.70;;;11.70;71.40;;;;;;4869696;29;20047;-83
2021/10/10 04:46:50;;;;;;;10.63;7.97;;;11.70;71.40;;;;;;4884676;29;20037;-82
2021/10/10 04:49:16;;;;;;;9.48;7.72;;;11.70;71.40;;;;;;4884835;29;20363;-83
2021/10/10 04:51:42;;;;;;;10.25;7.15;;;11.70;71.40;;;;;;4869215;29;20431;-83
2021/10/10 04:54:08;;;;;;;9.93;8.32;;;11.70;71.40;;;;;;4885484;29;20047;-84
2021/10/10 04:56:34;;;;;;;9.93;7.63;;;11.60;71.40;;;;;;4885085;29;20029;-85
2021/10/10 04:58:59;;;;;;;9.60;7.68;;;11.60;71.40;;;;;;4869211;29;20478;-82
2021/10/10 05:01:25;;;;;;;9.77;7.82;;;11.60;71.40;;;;;;4869435;29;20040;-83
2021/10/10 05:03:51;;;;;;;9.68;7.38;;;11.60;71.50;;;;;;4868549;29;20504;-83
2021/10/10 05:06:17;;;;;;;9.77;7.88;;;11.60;71.50;;;;;;4869089;29;20036;-83
2021/10/10 05:08:42;;;;;;;11.10;8.02;;;11.60;71.50;;;;;;4901195;29;20370;-84
2021/10/10 05:11:08;;;;;;;7.88;6.63;;;11.60;71.50;;;;;;4868857;29;20410;-83
2021/10/10 05:13:37;;;;;;;9.65;7.72;;;11.60;71.50;;;;;;4900074;29;20037;-84
2021/10/10 05:16:04;;;;;;;9.57;7.82;;;11.60;71.60;;;;;;4884201;29;20510;-83
2021/10/10 05:18:30;;;;;;;9.45;7.63;;;11.50;71.50;;;;;;4868019;29;20032;-82
2021/10/10 05:20:56;;;;;;;9.10;6.97;;;11.50;71.50;;;;;;4900855;29;20024;-82
2021/10/10 05:23:22;;;;;;;9.07;7.28;;;11.50;71.60;;;;;;4884034;29;20028;-83
2021/10/10 05:25:48;;;;;;;9.02;7.45;;;11.50;71.60;;;;;;4868306;29;20032;-82
2021/10/10 05:28:14;;;;;;;9.02;7.15;;;11.50;71.60;;;;;;4884029;29;20040;-83
2021/10/10 05:30:42;;;;;;;9.35;7.70;;;11.50;71.60;;;;;;4868495;29;20483;-83
2021/10/10 05:33:08;;;;;;;9.48;7.13;;;11.50;71.60;;;;;;4884209;29;20458;-83
2021/10/10 05:35:35;;;;;;;8.90;6.85;;;11.50;71.60;;;;;;4883738;29;20033;-83
2021/10/10 05:38:01;;;;;;;9.15;7.05;;;11.50;71.70;;;;;;4868087;29;20397;-83
2021/10/10 05:40:27;;;;;;;8.35;6.38;;;11.40;71.60;;;;;;4868911;29;20029;-83
2021/10/10 05:42:52;;;;;;;8.73;7.10;;;11.40;71.60;;;;;;4884037;29;20093;-85
2021/10/10 05:45:19;;;;;;;9.68;7.50;;;11.40;71.70;;;;;;4883714;29;20048;-83
2021/10/10 05:47:44;;;;;;;8.07;6.28;;;11.40;71.70;;;;;;4883387;29;20048;-81
2021/10/10 05:50:10;;;;;;;7.85;6.47;;;11.40;71.70;;;;;;4883457;29;20033;-81
2021/10/10 05:52:36;;;;;;;8.15;6.35;;;11.40;71.70;;;;;;4883843;29;20117;-83
2021/10/10 05:55:06;;;;;;;7.30;6.38;;;11.40;71.70;;;;;;4883509;29;20060;-84
2021/10/10 05:57:43;;;;;;;8.15;6.53;;;11.40;71.80;;;;;;4869255;29;20454;-83
2021/10/10 06:00:10;;;;;;;7.57;6.55;;;11.40;71.80;;;;;;4869816;29;20474;-83
2021/10/10 06:02:36;;;;;;;7.50;6.30;;;11.30;71.70;;;;;;4899434;29;20039;-83
2021/10/10 06:05:01;;;;;;;7.40;6.05;;;11.30;72.40;;;;;;4868233;29;20119;-83
2021/10/10 06:07:27;;;;;;;8.10;6.43;;;11.30;71.80;;;;;;4868044;29;20040;-83
2021/10/10 06:09:54;;;;;;;7.22;5.70;;;11.30;71.80;;;;;;4899403;29;20036;-84
2021/10/10 06:12:21;;;;;;;8.13;6.40;;;11.30;71.90;;;;;;4883579;29;20482;-84
2021/10/10 06:14:50;;;;;;;7.70;6.03;;;11.30;71.90;;;;;;4868104;29;20037;-84
2021/10/10 06:17:17;;;;;;;8.10;6.70;;;11.30;71.90;;;;;;4883253;29;20043;-83
2021/10/10 06:19:46;;;;;;;7.88;6.25;;;11.30;71.90;;;;;;4899748;29;20033;-83
2021/10/10 06:22:12;;;;;;;7.40;6.18;;;11.30;72.00;;;;;;4867709;29;20036;-83
2021/10/10 06:24:38;;;;;;;7.72;6.18;;;11.30;72.00;;;;;;4883423;29;20041;-83
2021/10/10 06:27:04;;;;;;;7.93;5.90;;;11.30;72.00;;;;;;4867636;29;20036;-82
2021/10/10 06:29:30;;;;;;;8.27;6.70;;;11.30;72.00;;;;;;4900331;29;20071;-83
2021/10/10 06:31:56;;;;;;;7.10;5.63;;;11.30;72.10;;;;;;4883011;29;20032;-83
2021/10/10 06:34:22;;;;;;;6.85;5.70;;;11.30;72.10;;;;;;4899430;29;20032;-82
2021/10/10 06:36:47;;;;;;;7.15;5.53;;;11.20;72.10;;;;;;4899547;29;20494;-83
2021/10/10 06:39:15;;;;;;;6.50;5.68;;;11.30;72.10;;;;;;4883259;29;20032;-80
2021/10/10 06:41:41;;;;;;;6.85;5.68;;;11.30;72.20;;;;;;4882774;29;20036;-83
2021/10/10 06:44:08;;;;;;;7.15;6.03;;;11.20;72.10;;;;;;4867046;29;20214;-83
2021/10/10 06:46:34;;;;;;;7.53;5.55;;;11.30;72.20;;;;;;4883030;29;20037;-83
2021/10/10 06:49:00;;;;;;;6.43;5.30;;;11.20;72.20;;;;;;4882550;29;20029;-83
2021/10/10 06:51:26;;;;;;;7.45;5.95;;;11.20;72.20;;;;;;4899606;29;20036;-83
2021/10/10 06:53:51;;;;;;;6.30;5.22;;;11.20;72.20;;;;;;4882558;29;20564;-82
2021/10/10 06:56:17;;;;;;;5.93;5.13;;;11.30;72.30;;;;;;4866786;29;20037;-83
2021/10/10 06:58:43;;;;;;;6.80;5.82;;;11.20;72.30;;;;;;4883513;29;20036;-84
2021/10/10 07:01:15;;;;;;;7.30;5.80;;;11.20;72.30;;;;;;4899656;29;20371;-83
2021/10/10 07:03:41;;;;;;;6.68;5.88;;;11.20;72.30;;;;;;4883110;29;20037;-83
2021/10/10 07:06:08;;;;;;;6.95;6.10;;;11.20;72.30;;;;;;4867152;29;20484;-83
2021/10/10 07:08:33;;;;;;;7.05;6.28;;;11.30;72.40;;;;;;4867080;29;20025;-83
2021/10/10 07:10:59;;;;;;;7.07;5.80;;;11.20;72.30;;;;;;4866685;29;20132;-83
2021/10/10 07:13:25;;;;;;;6.03;5.13;;;11.30;72.40;;;;;;4883257;29;20355;-83
2021/10/10 07:15:54;;;;;;;6.85;5.90;;;11.30;72.40;;;;;;4867119;29;20048;-83
2021/10/10 07:18:24;;;;;;;6.53;5.63;;;11.20;72.40;;;;;;4899329;29;20041;-83
2021/10/10 07:23:55;;;;;;;5.78;5.15;;;11.20;72.40;;;;;;4883572;29;20041;-85
2021/10/10 07:26:24;;;;;;;6.55;5.50;;;11.20;72.40;;;;;;4882505;29;20065;-83
2021/10/10 07:28:51;;;;;;;6.40;5.47;;;11.30;72.50;;;;;;4882997;29;20521;-83
2021/10/10 07:31:18;;;;;;;6.50;5.78;;;11.30;72.50;;;;;;4867630;29;20067;-83
2021/10/10 07:33:44;;;;;;;6.53;5.55;;;11.30;72.60;;;;;;4867058;29;20127;-83
2021/10/10 07:36:11;;;;;;;7.18;5.45;;;11.30;72.60;;;;;;4867144;29;20032;-84
2021/10/10 07:38:37;;;;;;;6.55;5.43;;;11.30;72.60;;;;;;4882882;29;20032;-83
2021/10/10 07:41:04;;;;;;;6.40;5.55;;;11.30;72.60;;;;;;4866935;29;20032;-83
2021/10/10 07:43:31;;;;;;;6.85;5.82;;;11.30;72.60;;;;;;4882277;29;20037;-83
2021/10/10 07:46:09;;;;;;;6.38;5.65;;;11.30;72.60;;;;;;4882347;29;20029;-83
2021/10/10 07:48:35;;;;;;;6.85;5.80;;;11.30;72.70;;;;;;4882419;29;20033;-83
2021/10/10 07:51:01;;;;;;;6.88;5.75;;;11.40;72.70;;;;;;4899206;29;20501;-83
2021/10/10 07:53:29;;;;;;;7.28;6.22;;;11.40;72.70;;;;;;4867174;29;20039;-83
2021/10/10 07:55:55;;;;;;;7.05;6.18;;;11.40;72.80;;;;;;4883514;29;20029;-84
2021/10/10 07:58:20;;;;;;;7.60;6.43;;;11.40;72.80;;;;;;4869364;29;20037;-82
2021/10/10 08:00:46;;;;;;;7.20;6.47;;;11.40;72.70;;;;;;4869766;29;20037;-81
2021/10/10 08:03:12;;;;;;;6.95;5.95;;;11.40;72.70;;;;;;4884960;29;20040;-81
2021/10/10 08:05:42;;;;;;;6.90;5.78;;;11.40;72.80;;;;;;4885135;29;20072;-80
2021/10/10 08:08:09;;;;;;;7.03;5.93;;;11.40;72.80;;;;;;4885603;29;20044;-84
2021/10/10 08:10:35;;;;;;;6.97;6.03;;;11.50;72.90;;;;;;4869444;29;20028;-82
2021/10/10 08:13:02;;;;;;;7.53;6.30;;;11.50;72.90;;;;;;4886043;29;20056;-80
2021/10/10 08:15:28;;;;;;;7.40;6.00;;;11.50;72.90;;;;;;4885414;29;20122;-84
2021/10/10 08:17:54;;;;;;;6.90;5.68;;;11.50;72.90;;;;;;4885429;29;20104;-82
2021/10/10 08:20:20;;;;;;;6.97;5.93;;;11.50;72.90;;;;;;4885122;29;20115;-84
2021/10/10 08:22:47;;;;;;;7.32;6.00;;;11.50;72.90;;;;;;4869524;29;20044;-83
2021/10/10 08:25:14;;;;;;;7.70;6.50;;;11.60;73.00;;;;;;4885508;29;20115;-81
2021/10/10 08:27:43;;;;;;;7.55;6.50;;;11.60;73.00;;;;;;4870973;29;20064;-82
2021/10/10 08:30:12;;;;;;;8.57;6.13;;;11.60;73.00;;;;;;4886244;29;20040;-83
2021/10/10 08:32:38;;;;;;;7.45;6.47;;;11.60;73.00;;;;;;4869939;29;20123;-82
2021/10/10 08:35:05;;;;;;;7.45;6.25;;;11.60;73.00;;;;;;4869451;29;20146;-83
2021/10/10 08:37:31;;;;;;;6.97;5.82;;;11.60;73.00;;;;;;4884984;29;20039;-83
2021/10/10 08:39:57;;;;;;;7.88;6.78;;;11.70;73.10;;;;;;4869417;29;20024;-87
2021/10/10 08:42:29;;;;;;;8.00;6.57;;;11.70;73.00;;;;;;4885193;29;20068;-84
2021/10/10 08:45:03;;;;;;;7.15;6.00;;;11.70;73.10;;;;;;4870089;29;20056;-85
2021/10/10 08:47:31;;;;;;;7.22;6.47;;;11.70;73.10;;;;;;4885365;29;20041;-83
2021/10/10 08:49:58;;;;;;;7.32;6.10;;;11.80;73.10;;;;;;4884964;29;20124;-83
2021/10/10 08:52:24;;;;;;;7.78;6.50;;;11.80;73.10;;;;;;4885303;29;20029;-83
2021/10/10 08:54:50;;;;;;;7.85;6.85;;;11.80;73.10;;;;;;4869231;29;20040;-84
2021/10/10 08:57:17;;;;;;;7.75;6.47;;;11.80;73.10;;;;;;4884789;29;20111;-84
2021/10/10 08:59:48;;;;;;;7.45;6.18;;;11.90;73.20;;;;;;4869893;29;20123;-86
2021/10/10 09:02:19;;;;;;;7.78;6.72;;;11.90;73.20;;;;;;4901238;29;20036;-82
2021/10/10 09:04:45;;;;;;;7.72;6.47;;;11.90;73.20;;;;;;4885169;29;20068;-84
2021/10/10 09:07:11;;;;;;;7.97;6.40;;;12.00;73.30;;;;;;4884949;29;20037;-86
2021/10/10 09:09:39;;;;;;;7.70;6.57;;;12.00;73.30;;;;;;4882456;29;20032;-81
2021/10/10 09:12:10;;;;;;;8.63;7.15;;;12.00;73.30;;;;;;4869421;29;20060;-81
2021/10/10 09:14:46;;;;;;;8.45;6.93;;;12.10;73.50;;;;;;4868097;29;20119;-80
2021/10/10 09:17:15;;;;;;;8.20;7.03;;;12.10;73.40;;;;;;4883592;29;20474;-81
2021/10/10 09:19:59;;;;;;;8.20;6.72;;;12.10;73.40;;;;;;4901429;29;20058;-80
2021/10/10 09:22:26;;;;;;;8.27;7.28;;;12.20;73.60;;;;;;4884054;29;20035;-82
2021/10/10 09:24:54;;;;;;;7.72;6.40;;;12.20;73.40;;;;;;4869454;29;20067;-83
2021/10/10 09:27:22;;;;;;;9.05;7.28;;;12.20;73.40;;;;;;4884232;29;20036;-85
2021/10/10 09:29:51;;;;;;;9.38;7.63;;;12.30;74.00;;;;;;4883995;29;20048;-82
2021/10/10 09:32:19;;;;;;;8.45;7.18;;;12.30;73.40;;;;;;4900244;29;20036;-82
2021/10/10 09:34:47;;;;;;;7.90;6.82;;;12.30;73.30;;;;;;4868772;29;20032;-83
2021/10/10 09:37:32;;;;;;;9.25;7.53;;;12.40;73.30;;;;;;4868280;29;20025;-82
2021/10/10 09:40:03;;;;;;;8.23;6.93;;;12.40;73.30;;;;;;4900149;29;20044;-79
2021/10/10 09:42:40;;;;;;;8.30;6.70;;;12.50;73.20;;;;;;4884606;29;20074;-85
2021/10/10 09:45:40;;;;;;;8.23;6.95;;;12.50;73.20;;;;;;4884206;29;20033;-82
2021/10/10 09:48:06;;;;;;;8.35;6.88;;;12.60;73.30;;;;;;4884331;29;20056;-83
2021/10/10 09:50:37;;;;;;;8.75;7.32;;;12.60;73.10;;;;;;4900114;29;20052;-84
2021/10/10 09:53:07;;;;;;;8.30;6.80;;;12.70;73.10;;;;;;4868153;29;20127;-83
2021/10/10 09:55:35;;;;;;;8.50;7.53;;;12.70;73.10;;;;;;4900513;29;20513;-82
2021/10/10 09:58:01;;;;;;;9.82;7.30;;;12.80;73.00;;;;;;4883297;29;20036;-82
2021/10/10 10:00:33;;;;;;;9.05;7.75;;;12.80;72.90;;;;;;4899660;29;20033;-83
2021/10/10 10:03:09;;;;;;;9.25;7.70;;;12.90;72.90;;;;;;4883138;29;20131;-82
2021/10/10 10:05:36;;;;;;;9.02;7.38;;;13.00;73.00;;;;;;4883360;29;20040;-82
2021/10/10 10:08:03;;;;;;;10.95;8.43;;;13.00;72.80;;;;;;4867563;29;20056;-83
2021/10/10 10:10:31;;;;;;;8.68;7.40;;;13.00;72.80;;;;;;4867356;29;20036;-82
2021/10/10 10:12:59;;;;;;;9.82;8.32;;;13.10;72.80;;;;;;4899338;29;20032;-80
2021/10/10 10:15:30;;;;;;;9.35;7.95;;;13.10;72.80;;;;;;4914013;29;20033;-80
2021/10/10 10:17:57;;;;;;;9.45;7.57;;;13.20;72.80;;;;;;4867620;29;20084;-80
2021/10/10 10:20:24;;;;;;;9.00;7.50;;;13.20;72.70;;;;;;4899450;29;20054;-80
2021/10/10 10:22:56;;;;;;;9.05;7.65;;;13.30;72.80;;;;;;4882736;29;20049;-80
2021/10/10 10:25:24;;;;;;;10.27;8.35;;;13.30;72.80;;;;;;4883321;29;20067;-80
2021/10/10 10:27:51;;;;;;;9.48;7.78;;;13.30;72.70;;;;;;4883038;29;20044;-80
2021/10/10 10:30:20;;;;;;;9.63;7.93;;;13.40;72.80;;;;;;4898700;29;20124;-79
2021/10/10 10:32:46;;;;;;;8.85;7.95;;;13.50;72.90;;;;;;4867247;29;20041;-80
2021/10/10 10:35:21;;;;;;;10.10;8.27;;;13.50;72.90;;;;;;4898214;29;20039;-79
2021/10/10 10:37:50;;;;;;;10.32;8.35;;;13.50;73.00;;;;;;4899148;29;20033;-80
2021/10/10 10:40:18;;;;;;;9.88;8.02;;;13.60;73.00;;;;;;4898511;29;20028;-79
2021/10/10 10:42:51;;;;;;;10.73;8.50;;;13.70;73.00;;;;;;4898529;29;20060;-79
2021/10/10 10:45:25;;;;;;;9.40;7.95;;;13.70;73.10;;;;;;4882232;29;20063;-79
2021/10/10 10:47:53;;;;;;;9.43;8.23;;;13.70;73.20;;;;;;4882314;29;20430;-79
2021/10/10 10:50:22;;;;;;;10.40;8.23;;;13.80;73.20;;;;;;4882422;29;20123;-80
2021/10/10 10:53:09;;;;;;;9.77;8.20;;;13.80;73.20;;;;;;4867140;29;20037;-80
2021/10/10 10:55:53;;;;;;;11.07;8.80;;;13.90;73.50;;;;;;4881780;29;20036;-80
2021/10/10 10:58:19;;;;;;;11.25;8.80;;;13.90;73.40;;;;;;4882062;29;20036;-80
2021/10/10 11:01:02;;;;;;;10.93;9.05;;;14.00;73.50;;;;;;4898895;29;20032;-80
2021/10/10 11:03:28;;;;;;;10.77;9.05;;;14.00;73.70;;;;;;4867438;29;20422;-80
2021/10/10 11:05:55;;;;;;;11.60;9.63;;;14.00;73.70;;;;;;4866507;29;20176;-80
2021/10/10 11:08:27;;;;;;;12.30;10.13;;;14.10;73.90;;;;;;4866633;29;20031;-79
2021/10/10 11:11:16;;;;;;;10.75;9.07;;;14.10;74.00;;;;;;4866457;29;20398;-80
2021/10/10 11:13:46;;;;;;;10.93;9.65;;;14.10;74.20;;;;;;4882232;29;20458;-80
2021/10/10 11:16:14;;;;;;;12.65;10.52;;;14.20;74.10;;;;;;4866154;29;20162;-79
2021/10/10 11:18:56;;;;;;;11.65;9.98;;;14.20;74.30;;;;;;4898579;29;20039;-79
2021/10/10 11:21:28;;;;;;;12.18;9.52;;;14.20;74.50;;;;;;4898564;29;20447;-82
2021/10/10 11:23:59;;;;;;;12.90;11.20;;;14.30;74.50;;;;;;4867638;29;20037;-84
2021/10/10 11:26:27;;;;;;;13.07;11.07;;;14.30;74.60;;;;;;4883305;29;20033;-81
2021/10/10 11:28:56;;;;;;;15.30;10.88;;;14.30;74.70;;;;;;4899107;29;20040;-81
2021/10/10 11:31:33;;;;;;;14.65;11.82;;;14.40;74.90;;;;;;4866999;29;20028;-83
2021/10/10 11:34:01;;;;;;;13.25;11.70;;;14.40;75.10;;;;;;4886172;29;20043;-82
2021/10/10 11:36:45;;;;;;;15.68;12.80;;;14.40;75.20;;;;;;4870884;29;20384;-81
2021/10/10 11:39:22;;;;;;;16.23;13.20;;;14.50;75.60;;;;;;4900756;29;20033;-81
2021/10/10 11:42:02;;;;;;;14.60;12.10;;;14.50;75.60;;;;;;4902372;29;20473;-81
2021/10/10 11:44:33;;;;;;;13.10;11.73;;;14.50;75.60;;;;;;4885454;29;20040;-82
2021/10/10 11:47:01;;;;;;;14.68;12.20;;;14.50;75.60;;;;;;4902491;29;20032;-81
2021/10/10 11:52:21;;;;;;;15.23;12.43;;;14.60;76.10;;;;;;4902960;29;20067;-82
2021/10/10 11:54:54;;;;;;;;;;;14.60;76.10;;;;;;4916907;29;20040;-81
2021/10/10 11:57:19;;;;;;;13.25;10.98;;;14.70;75.80;;;;;;4902117;29;20436;-81
2021/10/10 11:59:57;;;;;;;13.70;11.30;;;14.70;75.80;;;;;;4885965;29;20128;-81
2021/10/10 12:02:32;;;;;;;14.75;12.23;;;14.70;76.20;;;;;;4901147;29;20044;-81
2021/10/10 12:05:09;;;;;;;15.65;12.30;;;14.70;76.20;;;;;;4902449;29;20058;-80
2021/10/10 12:07:36;;;;;;;15.45;12.30;;;14.70;76.20;;;;;;4870391;29;20092;-80
2021/10/10 12:10:05;;;;;;;14.77;12.50;;;14.80;76.30;;;;;;4885593;29;20060;-80
2021/10/10 12:12:31;;;;;;;15.48;11.90;;;14.80;76.30;;;;;;4885280;29;20509;-82
2021/10/10 12:14:58;;;;;;;15.43;12.50;;;14.80;76.30;;;;;;4885153;29;20052;-81
2021/10/10 12:17:47;;;;;;;16.73;12.77;;;14.80;76.30;;;;;;4885357;29;20035;-81
2021/10/10 12:20:15;;;;;;;14.57;12.23;;;14.90;76.60;;;;;;4885268;29;20036;-81
2021/10/10 12:22:55;;;;;;;14.60;11.70;;;14.90;76.40;;;;;;4884871;29;20064;-82
2021/10/10 12:25:35;;;;;;;15.02;12.35;;;14.90;76.50;;;;;;4885310;29;20024;-81
2021/10/10 12:28:13;;;;;;;14.90;12.45;;;15.00;76.50;;;;;;4885140;29;20052;-81
2021/10/10 12:30:43;;;;;;;15.60;12.85;;;15.00;76.40;;;;;;4901615;29;20037;-81
2021/10/10 12:33:30;;;;;;;15.88;13.52;;;15.00;76.40;;;;;;4885278;29;20047;-81
2021/10/10 12:35:56;;;;;;;15.43;12.57;;;15.10;76.60;;;;;;4900733;29;20032;-80
2021/10/10 12:38:35;;;;;;;15.52;12.82;;;15.10;76.40;;;;;;4883943;29;20028;-80
2021/10/10 12:41:22;;;;;;;15.15;12.85;;;15.10;76.60;;;;;;4884134;29;20032;-81
2021/10/10 12:43:53;;;;;;;15.18;12.20;;;15.10;76.40;;;;;;4901576;29;20127;-80
2021/10/10 12:46:20;;;;;;;16.60;12.18;;;15.20;76.50;;;;;;4885172;29;20068;-81
2021/10/10 12:49:05;;;;;;;17.02;12.90;;;15.20;76.50;;;;;;4884522;29;20044;-82
2021/10/10 12:51:31;;;;;;;15.10;12.27;;;15.20;76.70;;;;;;4884385;29;20043;-80
2021/10/10 12:54:17;;;;;;;16.17;12.85;;;15.20;76.40;;;;;;4900397;29;20418;-80
2021/10/10 12:57:02;;;;;;;16.67;11.73;;;15.30;76.70;;;;;;4901532;29;20033;-80
2021/10/10 12:59:28;;;;;;;;;;;15.30;76.50;;;;;;4885182;29;20039;-80